sensor_id;sensor_type;location;lat;lon;timestamp;pressure;altitude;pressure_sealevel;temperature;humidity
73105;BME280;61296;50.526;30.792;2023-07-20T00:07:26;98961.97;;;18.33;58.11
73105;BME280;61296;50.526;30.792;2023-07-20T00:22:45;98873.94;;;17.39;59.55
73105;BME280;61296;50.526;30.792;2023-07-20T00:38:05;98890.13;;;17.57;58.56
73105;BME280;61296;50.526;30.792;2023-07-20T00:53:25;98841.13;;;17.18;59.36
73105;BME280;61296;50.526;30.792;2023-07-20T01:08:58;98845.88;;;16.88;60.51
73105;BME280;61296;50.526;30.792;2023-07-20T01:24:37;98831.69;;;16.50;62.15
73105;BME280;61296;50.526;30.792;2023-07-20T01:40:00;98902.78;;;16.44;64.44
73105;BME280;61296;50.526;30.792;2023-07-20T01:55:20;98829.53;;;16.05;63.55
73105;BME280;61296;50.526;30.792;2023-07-20T02:10:41;98847.94;;;16.32;63.17
73105;BME280;61296;50.526;30.792;2023-07-20T02:26:01;98836.50;;;16.46;62.99
73105;BME280;61296;50.526;30.792;2023-07-20T02:41:20;98879.19;;;17.21;61.97
73105;BME280;61296;50.526;30.792;2023-07-20T02:56:39;98964.69;;;18.36;59.87
73105;BME280;61296;50.526;30.792;2023-07-20T03:11:59;98826.28;;;18.24;57.24
73105;BME280;61296;50.526;30.792;2023-07-20T03:27:21;98880.94;;;19.20;55.18
73105;BME280;61296;50.526;30.792;2023-07-20T03:42:40;98857.97;;;19.50;55.97
73105;BME280;61296;50.526;30.792;2023-07-20T03:58:03;98877.44;;;20.29;52.69
73105;BME280;61296;50.526;30.792;2023-07-20T04:13:23;98860.03;;;20.87;51.05
73105;BME280;61296;50.526;30.792;2023-07-20T04:28:42;98910.69;;;21.75;50.77
73105;BME280;61296;50.526;30.792;2023-07-20T04:44:06;98864.97;;;21.87;50.76
73105;BME280;61296;50.526;30.792;2023-07-20T04:59:26;98916.06;;;22.52;51.50
73105;BME280;61296;50.526;30.792;2023-07-20T05:14:46;98927.19;;;23.45;48.30
73105;BME280;61296;50.526;30.792;2023-07-20T05:30:06;98859.44;;;23.14;46.95
73105;BME280;61296;50.526;30.792;2023-07-20T05:45:26;98876.59;;;23.78;46.60
73105;BME280;61296;50.526;30.792;2023-07-20T06:00:48;98840.78;;;24.17;43.96
73105;BME280;61296;50.526;30.792;2023-07-20T06:16:07;98912.28;;;24.75;43.75
73105;BME280;61296;50.526;30.792;2023-07-20T06:31:27;98947.03;;;25.43;42.35
73105;BME280;61296;50.526;30.792;2023-07-20T06:46:47;98917.66;;;25.64;42.49
73105;BME280;61296;50.526;30.792;2023-07-20T07:02:06;98853.09;;;25.40;41.04
73105;BME280;61296;50.526;30.792;2023-07-20T07:17:25;98860.78;;;25.60;36.83
73105;BME280;61296;50.526;30.792;2023-07-20T07:32:44;98905.31;;;26.02;37.78
73105;BME280;61296;50.526;30.792;2023-07-20T07:48:04;98863.50;;;25.95;35.55
73105;BME280;61296;50.526;30.792;2023-07-20T08:03:24;98869.78;;;25.64;37.04
73105;BME280;61296;50.526;30.792;2023-07-20T08:18:44;98885.00;;;26.18;37.14
73105;BME280;61296;50.526;30.792;2023-07-20T08:34:06;98878.16;;;26.57;36.35
73105;BME280;61296;50.526;30.792;2023-07-20T08:49:26;98862.00;;;27.37;34.79
73105;BME280;61296;50.526;30.792;2023-07-20T09:04:45;98867.97;;;27.45;33.29
73105;BME280;61296;50.526;30.792;2023-07-20T09:20:07;98849.41;;;25.95;34.01
73105;BME280;61296;50.526;30.792;2023-07-20T09:35:31;98855.75;;;25.90;33.08
73105;BME280;61296;50.526;30.792;2023-07-20T09:50:51;98826.72;;;25.58;35.10
73105;BME280;61296;50.526;30.792;2023-07-20T10:06:13;98781.75;;;26.21;34.70
73105;BME280;61296;50.526;30.792;2023-07-20T10:21:39;98774.41;;;26.35;34.50
73105;BME280;61296;50.526;30.792;2023-07-20T10:37:00;98811.50;;;26.54;34.19
73105;BME280;61296;50.526;30.792;2023-07-20T10:52:20;98756.50;;;26.01;34.05
73105;BME280;61296;50.526;30.792;2023-07-20T11:07:39;98701.31;;;25.62;35.56
73105;BME280;61296;50.526;30.792;2023-07-20T11:23:00;98755.63;;;26.21;34.84
73105;BME280;61296;50.526;30.792;2023-07-20T11:38:19;98699.06;;;25.93;35.07
73105;BME280;61296;50.526;30.792;2023-07-20T11:53:39;98700.75;;;26.48;33.85
73105;BME280;61296;50.526;30.792;2023-07-20T12:08:59;98683.63;;;26.62;34.10
73105;BME280;61296;50.526;30.792;2023-07-20T12:24:21;98633.47;;;26.35;34.94
73105;BME280;61296;50.526;30.792;2023-07-20T12:39:41;98613.66;;;26.61;33.86
73105;BME280;61296;50.526;30.792;2023-07-20T12:55:07;98650.13;;;26.81;33.86
73105;BME280;61296;50.526;30.792;2023-07-20T13:10:27;98621.13;;;26.69;33.95
73105;BME280;61296;50.526;30.792;2023-07-20T13:25:47;98590.06;;;26.64;33.45
73105;BME280;61296;50.526;30.792;2023-07-20T13:41:06;98633.19;;;26.81;34.04
73105;BME280;61296;50.526;30.792;2023-07-20T13:56:26;98575.19;;;26.63;34.28
73105;BME280;61296;50.526;30.792;2023-07-20T14:11:46;98531.41;;;26.90;35.23
73105;BME280;61296;50.526;30.792;2023-07-20T14:27:06;98570.72;;;27.22;34.70
73105;BME280;61296;50.526;30.792;2023-07-20T14:42:25;98537.25;;;26.59;36.53
73105;BME280;61296;50.526;30.792;2023-07-20T14:57:44;98561.13;;;26.74;36.53
73105;BME280;61296;50.526;30.792;2023-07-20T15:13:04;98502.03;;;26.32;37.63
73105;BME280;61296;50.526;30.792;2023-07-20T15:28:23;98581.59;;;26.64;38.73
73105;BME280;61296;50.526;30.792;2023-07-20T15:43:43;98499.78;;;25.82;39.42
73105;BME280;61296;50.526;30.792;2023-07-20T15:59:02;98569.81;;;25.69;41.71
73105;BME280;61296;50.526;30.792;2023-07-20T16:14:21;98671.72;;;19.45;76.40
73105;BME280;61296;50.526;30.792;2023-07-20T16:29:40;98660.06;;;16.78;99.89
73105;BME280;61296;50.526;30.792;2023-07-20T16:45:00;98797.63;;;17.27;100.00
73105;BME280;61296;50.526;30.792;2023-07-20T17:00:20;98705.16;;;16.69;100.00
73105;BME280;61296;50.526;30.792;2023-07-20T17:15:39;98682.66;;;16.80;100.00
73105;BME280;61296;50.526;30.792;2023-07-20T17:30:59;98691.78;;;17.09;100.00
73105;BME280;61296;50.526;30.792;2023-07-20T17:46:19;98682.06;;;17.01;100.00
73105;BME280;61296;50.526;30.792;2023-07-20T18:01:38;98609.75;;;16.47;100.00
73105;BME280;61296;50.526;30.792;2023-07-20T18:16:58;98624.53;;;16.56;100.00
73105;BME280;61296;50.526;30.792;2023-07-20T18:32:17;98652.09;;;16.63;100.00
73105;BME280;61296;50.526;30.792;2023-07-20T18:47:37;98711.06;;;17.00;100.00
73105;BME280;61296;50.526;30.792;2023-07-20T19:02:57;98676.81;;;16.90;100.00
73105;BME280;61296;50.526;30.792;2023-07-20T19:18:17;98642.22;;;16.79;100.00
73105;BME280;61296;50.526;30.792;2023-07-20T19:33:37;98660.47;;;16.92;100.00
73105;BME280;61296;50.526;30.792;2023-07-20T19:48:57;98654.03;;;16.95;100.00
73105;BME280;61296;50.526;30.792;2023-07-20T20:04:17;98747.56;;;17.44;100.00
73105;BME280;61296;50.526;30.792;2023-07-20T20:19:39;98625.66;;;16.75;100.00
73105;BME280;61296;50.526;30.792;2023-07-20T20:34:59;98652.50;;;17.07;100.00
73105;BME280;61296;50.526;30.792;2023-07-20T20:50:18;98640.25;;;16.92;100.00
73105;BME280;61296;50.526;30.792;2023-07-20T21:05:40;98627.91;;;16.64;100.00
73105;BME280;61296;50.526;30.792;2023-07-20T21:20:59;98689.13;;;16.89;100.00
73105;BME280;61296;50.526;30.792;2023-07-20T21:36:19;98719.44;;;16.51;100.00
73105;BME280;61296;50.526;30.792;2023-07-20T21:51:40;98771.25;;;16.58;100.00
73105;BME280;61296;50.526;30.792;2023-07-20T22:06:59;98761.16;;;16.31;100.00
73105;BME280;61296;50.526;30.792;2023-07-20T22:22:18;98808.09;;;16.58;100.00
73105;BME280;61296;50.526;30.792;2023-07-20T22:37:37;98762.28;;;16.34;100.00
73105;BME280;61296;50.526;30.792;2023-07-20T22:52:56;98723.84;;;16.00;100.00
73105;BME280;61296;50.526;30.792;2023-07-20T23:08:16;98702.78;;;15.86;100.00
73105;BME280;61296;50.526;30.792;2023-07-20T23:23:36;98717.88;;;16.01;100.00
73105;BME280;61296;50.526;30.792;2023-07-20T23:38:56;98802.53;;;16.42;100.00
73105;BME280;61296;50.526;30.792;2023-07-20T23:54:16;98783.75;;;16.13;100.00
